Time;durP1;ratioP1;P1;durP2;ratioP2;P2;SDS_P1;SDS_P2;PMS_P1;PMS_P2;Temp;Humidity;BMP_temperature;BMP_pressure;BME280_temperature;BME280_humidity;BME280_pressure;Samples;Min_cycle;Max_cycle;Signal;HPM_P1;HPM_P2
2020/12/01 00:01:32;;;;;;;3.60;2.30;;;;;;;3.27;82.12;100733.72;1636273;87;21137;-68
2020/12/01 00:04:00;;;;;;;3.30;1.77;;;;;;;3.27;82.12;100736.39;1631894;88;21229;-68
2020/12/01 00:06:32;;;;;;;2.70;2.47;;;;;;;3.27;82.10;100738.58;1636159;87;21379;-68
2020/12/01 00:08:59;;;;;;;3.30;2.00;;;;;;;3.28;82.11;100745.65;1632127;88;21045;-69
2020/12/01 00:11:27;;;;;;;2.57;2.20;;;;;;;3.30;82.12;100745.55;1635832;87;20976;-69
2020/12/01 00:13:58;;;;;;;3.87;2.20;;;;;;;3.28;82.09;100740.30;1631732;88;21502;-68
2020/12/01 00:16:25;;;;;;;3.73;1.87;;;;;;;3.26;82.10;100740.02;1635889;87;21064;-68
2020/12/01 00:18:53;;;;;;;3.77;1.97;;;;;;;3.22;82.12;100738.92;1631719;88;21293;-70
2020/12/01 00:21:21;;;;;;;1.73;1.63;;;;;;;3.21;82.14;100745.21;1636162;87;21053;-69
2020/12/01 00:23:49;;;;;;;1.77;1.63;;;;;;;3.20;82.15;100745.31;1631626;88;20989;-69
2020/12/01 00:26:20;;;;;;;1.80;1.70;;;;;;;3.20;82.20;100753.33;1636216;87;20997;-67
2020/12/01 00:28:48;;;;;;;1.10;1.07;;;;;;;3.18;82.25;100751.25;1656674;86;20974;-70
2020/12/01 00:31:17;;;;;;;1.60;1.00;;;;;;;3.17;82.28;100748.19;1663698;86;21226;-68
2020/12/01 00:33:45;;;;;;;1.83;1.70;;;;;;;3.14;82.28;100750.61;1662825;86;21041;-69
2020/12/01 00:36:14;;;;;;;1.80;1.37;;;;;;;3.12;82.32;100745.01;1662196;86;21227;-68
2020/12/01 00:38:42;;;;;;;1.30;1.20;;;;;;;3.10;82.32;100737.09;1668764;86;21029;-68
2020/12/01 00:41:13;;;;;;;2.67;1.90;;;;;;;3.08;82.41;100740.81;1708329;82;21032;-69
2020/12/01 00:43:41;;;;;;;1.63;1.37;;;;;;;3.07;82.49;100744.47;1708942;82;21288;-69
2020/12/01 00:46:09;;;;;;;2.20;1.73;;;;;;;3.04;82.58;100742.35;1748193;82;21003;-70
2020/12/01 00:48:36;;;;;;;0.83;0.83;;;;;;;3.03;82.70;100751.34;1730345;83;21040;-68
2020/12/01 00:51:04;;;;;;;4.27;0.87;;;;;;;3.00;82.73;100746.70;1730129;83;21016;-68
2020/12/01 00:53:32;;;;;;;3.27;2.03;;;;;;;3.00;82.83;100756.05;1730247;83;20989;-68
2020/12/01 00:56:00;;;;;;;1.77;1.50;;;;;;;3.01;82.90;100758.62;1748701;82;21428;-69
2020/12/01 00:58:28;;;;;;;2.47;1.63;;;;;;;3.01;82.99;100752.40;1732744;81;21008;-68
2020/12/01 01:01:21;;;;;;;4.10;1.77;;;;;;;3.00;83.09;100746.20;1845873;76;26465;-68
2020/12/01 01:03:49;;;;;;;1.00;0.90;;;;;;;2.93;83.15;100747.59;1815874;79;20992;-68
2020/12/01 01:06:19;;;;;;;1.40;1.30;;;;;;;2.91;83.27;100745.51;1815831;79;21197;-68
2020/12/01 01:08:47;;;;;;;2.53;1.10;;;;;;;2.88;83.35;100752.39;1815664;79;20944;-69
2020/12/01 01:11:16;;;;;;;1.77;1.07;;;;;;;2.89;83.44;100757.27;1815712;79;20928;-69
2020/12/01 01:13:43;;;;;;;1.67;1.57;;;;;;;2.90;83.53;100760.30;1815692;77;21003;-69
2020/12/01 01:16:12;;;;;;;2.07;1.63;;;;;;;2.91;83.63;100757.53;1815563;79;21015;-68
2020/12/01 01:18:40;;;;;;;2.00;1.67;;;;;;;2.90;83.69;100744.27;1815813;79;21380;-68
2020/12/01 01:21:08;;;;;;;3.40;1.60;;;;;;;2.89;83.78;100753.27;1816018;79;20928;-67
2020/12/01 01:23:36;;;;;;;2.00;1.40;;;;;;;2.85;83.77;100760.14;1816085;78;20996;-69
2020/12/01 01:26:04;;;;;;;1.97;1.50;;;;;;;2.82;83.79;100760.83;1816019;79;21560;-69
2020/12/01 01:28:31;;;;;;;3.40;2.00;;;;;;;2.79;83.81;100765.03;1815467;79;20941;-70
2020/12/01 01:30:59;;;;;;;3.70;1.80;;;;;;;2.75;83.87;100760.87;1815603;79;21255;-68
2020/12/01 01:33:27;;;;;;;3.40;2.23;;;;;;;2.70;83.91;100755.83;1794257;78;21056;-69
2020/12/01 01:35:55;;;;;;;1.53;1.43;;;;;;;2.68;84.00;100755.08;1793542;78;21007;-69
2020/12/01 01:38:23;;;;;;;5.37;2.13;;;;;;;2.62;84.03;100747.45;1815703;77;21011;-69
2020/12/01 01:40:57;;;;;;;2.17;1.83;;;;;;;2.60;84.07;100757.39;1816179;79;20929;-69
2020/12/01 01:43:25;;;;;;;3.07;2.13;;;;;;;2.57;84.09;100750.94;1728861;81;21428;-68
2020/12/01 01:45:54;;;;;;;4.23;2.47;;;;;;;2.54;84.16;100755.98;1728999;83;21076;-68
2020/12/01 01:48:26;;;;;;;4.43;2.63;;;;;;;2.51;84.25;100772.20;1729486;83;20952;-68
2020/12/01 01:51:03;;;;;;;3.98;2.40;;;;;;;2.49;84.34;100771.45;1728589;83;21083;-68
2020/12/01 01:53:33;;;;;;;3.40;1.93;;;;;;;2.44;84.41;100769.11;1729404;81;21490;-68
2020/12/01 01:56:05;;;;;;;2.93;1.77;;;;;;;2.42;84.47;100775.48;1728827;82;21382;-69
2020/12/01 01:58:37;;;;;;;2.10;1.93;;;;;;;2.38;84.54;100767.31;1729033;83;21573;-68
2020/12/01 02:01:09;;;;;;;3.40;2.33;;;;;;;2.34;84.63;100773.78;1725613;82;20992;-68
2020/12/01 02:03:49;;;;;;;1.70;1.60;;;;;;;2.31;84.72;100770.00;1846230;76;26638;-69
2020/12/01 02:06:29;;;;;;;2.07;1.93;;;;;;;2.23;84.84;100773.16;1816562;79;21040;-68
2020/12/01 02:08:59;;;;;;;1.97;1.43;;;;;;;2.18;84.90;100768.13;1816585;79;21186;-69
2020/12/01 02:11:31;;;;;;;1.70;1.60;;;;;;;2.15;85.00;100773.66;1816121;79;21019;-68
2020/12/01 02:14:27;;;;;;;2.93;1.97;;;;;;;2.15;85.12;100776.33;1807173;79;21493;-69
2020/12/01 02:17:12;;;;;;;2.77;2.20;;;;;;;2.12;85.20;100773.84;1847224;77;21032;-68
2020/12/01 02:19:40;;;;;;;6.20;1.57;;;;;;;2.07;85.30;100775.95;1849745;77;20887;-68
2020/12/01 02:22:13;;;;;;;2.27;1.67;;;;;;;2.01;85.40;100772.36;1811545;79;21135;-68
2020/12/01 02:24:41;;;;;;;2.25;1.77;;;;;;;1.99;85.43;100782.27;1812080;79;24194;-68
2020/12/01 02:27:12;;;;;;;2.73;2.03;;;;;;;1.94;85.45;100789.71;1780757;79;20993;-68
2020/12/01 02:29:43;;;;;;;3.60;2.30;;;;;;;1.89;85.48;100788.20;1735277;82;20997;-68
2020/12/01 02:32:12;;;;;;;5.80;2.60;;;;;;;1.85;85.53;100787.14;1737213;79;21040;-68
2020/12/01 02:34:44;;;;;;;5.07;2.40;;;;;;;1.81;85.56;100794.48;1741866;82;21333;-69
2020/12/01 02:37:17;;;;;;;4.53;2.10;;;;;;;1.78;85.64;100792.48;1771080;80;22000;-68
2020/12/01 02:39:45;;;;;;;4.62;2.20;;;;;;;1.75;85.69;100790.85;1784280;79;20950;-69
2020/12/01 02:42:16;;;;;;;6.33;3.63;;;;;;;1.76;85.74;100797.91;1758544;81;21060;-68
2020/12/01 02:44:44;;;;;;;7.13;3.93;;;;;;;1.75;85.81;100788.19;1778719;80;20987;-69
2020/12/01 02:47:12;;;;;;;4.20;2.77;;;;;;;1.75;85.90;100795.34;1758633;81;21443;-69
2020/12/01 02:49:40;;;;;;;6.27;3.00;;;;;;;1.72;85.95;100788.40;1772622;81;21026;-68
2020/12/01 02:52:10;;;;;;;3.20;2.10;;;;;;;1.71;86.01;100801.34;1759430;80;21004;-68
2020/12/01 02:54:39;;;;;;;3.27;2.47;;;;;;;1.70;86.05;100801.83;1798684;79;20981;-68
2020/12/01 02:57:08;;;;;;;6.33;3.33;;;;;;;1.71;86.14;100795.52;1776000;80;21019;-69
2020/12/01 02:59:37;;;;;;;5.87;3.40;;;;;;;1.70;86.19;100791.16;1798729;79;22600;-68
2020/12/01 03:02:05;;;;;;;3.23;2.47;;;;;;;1.66;86.22;100786.95;1775670;80;21003;-67
2020/12/01 03:04:33;;;;;;;4.67;2.73;;;;;;;1.61;86.24;100799.73;1798948;79;21005;-68
2020/12/01 03:07:01;;;;;;;2.70;2.20;;;;;;;1.58;86.23;100801.25;1776180;80;20893;-68
2020/12/01 03:09:29;;;;;;;3.60;2.20;;;;;;;1.57;86.24;100800.85;1805904;79;20982;-68
2020/12/01 03:11:57;;;;;;;2.57;1.70;;;;;;;1.58;86.29;100803.91;1767110;80;21145;-68
2020/12/01 03:14:26;;;;;;;2.37;1.97;;;;;;;1.57;86.33;100819.52;1749067;82;21019;-68
2020/12/01 03:16:54;;;;;;;2.40;2.20;;;;;;;1.55;86.34;100818.76;1748643;82;20998;-68
2020/12/01 03:19:22;;;;;;;2.17;1.33;;;;;;;1.56;86.39;100818.27;1748806;82;20900;-68
2020/12/01 03:21:50;;;;;;;3.77;1.83;;;;;;;1.56;86.42;100824.94;1748820;81;21055;-68
2020/12/01 03:24:17;;;;;;;2.60;1.77;;;;;;;1.57;86.45;100827.51;1748776;82;21386;-68
2020/12/01 03:26:46;;;;;;;3.43;2.20;;;;;;;1.56;86.44;100820.94;1748690;82;21067;-67
2020/12/01 03:29:14;;;;;;;3.70;2.03;;;;;;;1.56;86.44;100826.27;1749097;82;21070;-67
2020/12/01 03:31:41;;;;;;;2.57;1.80;;;;;;;1.56;86.45;100816.94;1748994;82;20942;-68
2020/12/01 03:34:11;;;;;;;2.50;1.63;;;;;;;1.54;86.49;100820.17;1707797;81;21025;-68
2020/12/01 03:36:39;;;;;;;1.50;1.40;;;;;;;1.51;86.48;100818.09;1734049;82;21325;-68
2020/12/01 03:39:07;;;;;;;3.13;2.20;;;;;;;1.49;86.45;100821.33;1734139;82;20997;-68
2020/12/01 03:41:36;;;;;;;5.03;2.50;;;;;;;1.49;86.46;100825.81;1734015;82;21028;-68
2020/12/01 03:44:04;;;;;;;2.33;1.60;;;;;;;1.49;86.50;100823.99;1734081;82;20937;-68
2020/12/01 03:46:31;;;;;;;1.70;1.60;;;;;;;1.49;86.50;100822.66;1733991;82;20957;-68
2020/12/01 03:48:59;;;;;;;1.87;1.57;;;;;;;1.48;86.53;100830.26;1734031;82;21169;-67
2020/12/01 03:51:27;;;;;;;3.20;2.17;;;;;;;1.47;86.54;100830.34;1733771;82;20989;-69
2020/12/01 03:53:55;;;;;;;3.43;1.80;;;;;;;1.46;86.50;100833.98;1704498;82;21020;-69
2020/12/01 03:56:23;;;;;;;4.33;2.50;;;;;;;1.46;86.55;100831.32;1765631;80;21846;-67
2020/12/01 03:58:51;;;;;;;4.40;2.53;;;;;;;1.46;86.56;100835.31;1804594;79;20983;-68
2020/12/01 04:01:19;;;;;;;2.40;1.53;;;;;;;1.44;86.53;100838.07;1790002;80;21206;-68
2020/12/01 04:03:48;;;;;;;2.17;1.67;;;;;;;1.41;86.57;100843.58;1789841;80;21000;-69
2020/12/01 04:06:16;;;;;;;2.23;1.57;;;;;;;1.39;86.54;100858.80;1810748;79;21049;-68
2020/12/01 04:08:44;;;;;;;3.67;1.67;;;;;;;1.38;86.54;100853.11;1790075;80;20925;-68
2020/12/01 04:11:12;;;;;;;2.33;1.50;;;;;;;1.37;86.50;100846.05;1804639;79;20982;-69
2020/12/01 04:13:40;;;;;;;2.60;1.97;;;;;;;1.36;86.51;100840.81;1735370;80;21269;-69
2020/12/01 04:16:08;;;;;;;4.40;2.50;;;;;;;1.35;86.50;100842.62;1810842;79;21021;-68
2020/12/01 04:18:36;;;;;;;4.10;2.43;;;;;;;1.34;86.46;100842.23;1789983;80;20980;-68
2020/12/01 04:21:04;;;;;;;4.17;2.10;;;;;;;1.32;86.43;100838.33;1789931;80;20936;-69
2020/12/01 04:23:31;;;;;;;4.17;2.13;;;;;;;1.30;86.43;100834.90;1810807;79;21030;-68
2020/12/01 04:26:00;;;;;;;1.97;1.63;;;;;;;1.28;86.40;100838.14;1789935;79;21203;-68
2020/12/01 04:28:27;;;;;;;4.53;2.53;;;;;;;1.26;86.36;100842.70;1810805;78;21025;-68
2020/12/01 04:30:55;;;;;;;4.13;2.93;;;;;;;1.24;86.33;100840.61;1790005;80;21020;-69
2020/12/01 04:33:23;;;;;;;4.43;2.47;;;;;;;1.24;86.35;100840.61;1762021;78;21040;-68
2020/12/01 04:35:51;;;;;;;4.20;2.53;;;;;;;1.24;86.39;100840.61;1735034;82;20933;-70
2020/12/01 04:38:19;;;;;;;3.40;1.97;;;;;;;1.23;86.37;100836.22;1735151;82;21456;-69
2020/12/01 04:40:47;;;;;;;2.30;2.10;;;;;;;1.23;86.33;100842.03;1735046;82;21076;-68
2020/12/01 04:43:35;;;;;;;5.00;2.13;;;;;;;1.22;86.27;100836.30;1735116;82;20934;-67
2020/12/01 04:46:03;;;;;;;5.50;3.10;;;;;;;1.22;86.25;100838.97;1735073;82;21005;-69
2020/12/01 04:48:47;;;;;;;5.50;3.17;;;;;;;1.20;86.21;100838.20;1704540;82;20985;-68
2020/12/01 04:51:47;;;;;;;3.42;2.22;;;;;;;1.14;86.11;100833.63;1704504;82;22208;-68
2020/12/01 04:54:30;;;;;;;5.37;3.00;;;;;;;1.13;86.02;100843.03;1729893;82;21098;-69
2020/12/01 04:57:24;;;;;;;6.75;3.42;;;;;;;1.10;85.90;100838.77;1757185;81;20962;-70
2020/12/01 05:00:01;;;;;;;6.23;3.30;;;;;;;1.07;85.80;100840.27;1765511;81;20882;-69
2020/12/01 05:02:56;;;;;;;3.57;2.33;;;;;;;1.04;85.74;100834.27;1763644;79;21648;-69
2020/12/01 05:08:45;;;;;;;1.57;1.47;;;;;;;1.01;85.71;100833.98;1652428;86;21064;-69
2020/12/01 05:11:34;;;;;;;2.57;2.43;;;;;;;1.01;85.71;100845.09;1652425;86;21103;-69
2020/12/01 05:14:35;;;;;;;4.30;2.90;;;;;;;1.06;85.74;100847.89;1889949;76;26746;-69
2020/12/01 05:17:31;;;;;;;5.83;3.55;;;;;;;0.99;85.77;100857.16;1860932;77;20979;-69
2020/12/01 05:19:59;;;;;;;8.80;4.13;;;;;;;0.97;85.78;100858.21;1860924;77;21144;-69
2020/12/01 05:22:27;;;;;;;8.57;4.07;;;;;;;0.93;85.81;100862.86;1860847;77;20990;-69
2020/12/01 05:24:55;;;;;;;6.20;3.80;;;;;;;0.88;85.81;100853.79;1860783;77;20967;-69
2020/12/01 05:27:35;;;;;;;4.87;3.47;;;;;;;0.86;85.83;100854.84;1860679;77;21022;-69
2020/12/01 05:30:22;;;;;;;8.37;4.70;;;;;;;0.85;85.88;100857.11;1860876;77;20997;-69
2020/12/01 05:33:01;;;;;;;9.37;4.27;;;;;;;0.84;85.93;100855.41;1847019;77;22245;-69
2020/12/01 05:35:34;;;;;;;8.70;4.40;;;;;;;0.81;85.96;100852.44;1735527;82;20972;-69
2020/12/01 05:38:13;;;;;;;9.83;4.87;;;;;;;0.79;86.03;100853.48;1722366;83;21063;-69
2020/12/01 05:40:53;;;;;;;6.47;3.97;;;;;;;0.79;86.09;100854.33;1691991;84;21057;-68
2020/12/01 05:43:35;;;;;;;21.40;8.13;;;;;;;0.84;86.17;100862.06;1829451;76;27891;-68
2020/12/01 05:46:17;;;;;;;9.57;4.67;;;;;;;0.82;86.15;100852.83;1736939;82;21032;-67
2020/12/01 05:49:32;;;;;;;7.77;3.97;;;;;;;0.90;86.12;100856.38;1845379;76;26628;-69
2020/12/01 05:52:17;;;;;;;8.47;3.97;;;;;;;0.86;86.16;100857.02;1815268;79;20976;-69
2020/12/01 05:54:47;;;;;;;6.37;3.73;;;;;;;0.85;86.20;100862.43;1815257;79;21193;-69
2020/12/01 05:57:22;;;;;;;6.77;3.60;;;;;;;0.83;86.22;100863.84;1815348;77;20980;-68
2020/12/01 06:00:10;;;;;;;9.23;3.13;;;;;;;0.81;86.27;100867.08;1815267;79;20968;-68
2020/12/01 06:03:12;;;;;;;8.43;4.53;;;;;;;0.80;86.29;100856.51;1815259;77;21035;-68
2020/12/01 06:05:41;;;;;;;11.47;5.93;;;;;;;0.80;86.36;100860.50;1815322;79;20920;-68
2020/12/01 06:08:35;;;;;;;7.20;3.53;;;;;;;0.81;86.54;100859.09;1815213;79;21354;-67
2020/12/01 06:11:38;;;;;;;4.93;2.60;;;;;;;0.84;86.67;100864.73;1728111;82;20988;-68
2020/12/01 06:14:30;;;;;;;3.17;2.60;;;;;;;0.87;86.75;100866.73;1728135;82;21000;-67
2020/12/01 06:17:08;;;;;;;5.40;2.93;;;;;;;0.90;86.83;100861.25;1728410;78;20980;-67
2020/12/01 06:19:47;;;;;;;3.67;2.50;;;;;;;0.99;86.86;100860.30;1890180;76;26667;-68
2020/12/01 06:22:23;;;;;;;6.47;2.87;;;;;;;0.98;86.86;100862.12;1861146;77;21040;-67
2020/12/01 06:25:21;;;;;;;6.13;3.10;;;;;;;1.00;86.85;100861.55;1856645;77;21247;-67
2020/12/01 06:28:23;;;;;;;3.63;2.30;;;;;;;1.01;86.80;100861.06;1861007;77;21025;-67
2020/12/01 06:31:28;;;;;;;1.63;1.53;;;;;;;1.00;86.71;100860.70;1861120;77;20903;-68
2020/12/01 06:34:27;;;;;;;4.07;3.13;;;;;;;0.99;86.67;100863.81;1831853;77;20942;-68
2020/12/01 06:37:19;;;;;;;7.30;3.63;;;;;;;1.01;86.67;100866.39;1751408;82;21026;-68
2020/12/01 06:40:05;;;;;;;6.63;2.80;;;;;;;1.01;86.71;100859.73;1748567;82;21308;-67
2020/12/01 06:42:52;;;;;;;6.83;3.37;;;;;;;0.99;86.74;100866.48;1736879;81;21408;-66
2020/12/01 06:45:38;;;;;;;7.20;3.70;;;;;;;1.04;86.74;100860.90;1845302;76;26764;-68
2020/12/01 06:48:32;;;;;;;6.70;3.67;;;;;;;1.00;86.74;100860.22;1815405;79;20913;-67
2020/12/01 06:51:00;;;;;;;5.67;3.60;;;;;;;0.99;86.75;100863.81;1767602;79;21358;-67
2020/12/01 06:53:35;;;;;;;4.10;3.00;;;;;;;0.98;86.79;100863.45;1753463;80;21028;-67
2020/12/01 06:56:13;;;;;;;9.63;4.13;;;;;;;1.00;86.86;100862.03;1757085;81;20966;-68
2020/12/01 06:58:47;;;;;;;6.87;3.13;;;;;;;1.02;86.88;100864.98;1753572;81;21036;-67
2020/12/01 07:01:31;;;;;;;7.80;3.00;;;;;;;1.08;86.90;100851.77;1851987;76;26704;-66
2020/12/01 07:04:20;;;;;;;8.93;4.53;;;;;;;1.06;86.92;100858.55;1782772;80;20935;-68
2020/12/01 07:06:52;;;;;;;6.40;3.70;;;;;;;1.08;86.97;100852.65;1855133;77;21267;-66
2020/12/01 07:09:30;;;;;;;7.47;4.07;;;;;;;1.07;86.93;100852.73;1855020;77;20893;-66
2020/12/01 07:12:09;;;;;;;9.20;4.10;;;;;;;1.06;86.90;100857.22;1855022;77;20977;-66
2020/12/01 07:14:48;;;;;;;7.47;3.80;;;;;;;1.08;86.90;100865.09;1855182;77;21616;-66
2020/12/01 07:17:25;;;;;;;9.13;3.50;;;;;;;1.08;86.88;100860.64;1850774;77;21009;-67
2020/12/01 07:19:57;;;;;;;6.40;2.93;;;;;;;1.05;86.92;100862.14;1846787;77;21142;-69
2020/12/01 07:22:57;;;;;;;15.00;5.20;;;;;;;1.01;86.90;100864.61;1782736;80;21026;-67
2020/12/01 07:25:54;;;;;;;6.63;3.80;;;;;;;1.00;86.89;100869.55;1817633;78;20980;-68
2020/12/01 07:28:33;;;;;;;9.80;4.93;;;;;;;0.98;86.90;100867.93;1721215;83;20976;-69
2020/12/01 07:31:18;;;;;;;6.03;3.67;;;;;;;0.97;86.91;100867.53;1720958;83;20972;-69
2020/12/01 07:33:58;;;;;;;10.20;3.97;;;;;;;0.97;86.90;100855.06;1743341;81;21206;-68
2020/12/01 07:36:42;;;;;;;12.27;4.37;;;;;;;0.95;86.81;100871.13;1733364;82;21672;-68
2020/12/01 07:39:21;;;;;;;12.50;5.57;;;;;;;0.94;86.71;100865.44;1748542;81;21059;-67
2020/12/01 07:42:01;;;;;;;5.37;3.57;;;;;;;0.97;86.67;100868.38;1832124;76;27202;-65
2020/12/01 07:44:40;;;;;;;6.17;3.63;;;;;;;0.91;86.60;100872.27;1808899;77;21054;-67
2020/12/01 07:47:24;;;;;;;8.03;3.73;;;;;;;0.88;86.50;100880.42;1804414;79;22249;-68
2020/12/01 07:50:06;;;;;;;6.07;3.77;;;;;;;0.86;86.42;100874.33;1803446;79;20995;-67
2020/12/01 07:52:38;;;;;;;5.50;3.00;;;;;;;0.85;86.40;100871.75;1716428;82;21096;-68
2020/12/01 07:55:37;;;;;;;3.50;2.43;;;;;;;0.85;86.37;100869.97;1884943;76;26610;-65
2020/12/01 07:58:15;;;;;;;2.63;2.33;;;;;;;0.82;86.40;100874.61;1773030;80;21025;-69
2020/12/01 08:00:57;;;;;;;4.47;2.57;;;;;;;0.84;86.41;100876.71;1802526;79;21331;-67
2020/12/01 08:03:34;;;;;;;6.03;3.40;;;;;;;0.83;86.42;100871.84;1797015;78;21028;-66
2020/12/01 08:06:05;;;;;;;5.90;4.20;;;;;;;0.83;86.43;100870.98;1811594;78;21110;-65
2020/12/01 08:08:36;;;;;;;6.40;3.50;;;;;;;0.81;86.43;100872.88;1812889;78;20985;-65
2020/12/01 08:11:06;;;;;;;5.37;2.67;;;;;;;0.78;86.42;100879.70;1784777;79;20894;-67
2020/12/01 08:13:36;;;;;;;8.23;3.33;;;;;;;0.80;86.47;100880.02;1794457;79;21368;-66
2020/12/01 08:16:20;;;;;;;8.03;4.17;;;;;;;0.82;86.47;100878.13;1790612;79;20946;-66
2020/12/01 08:18:50;;;;;;;7.33;3.83;;;;;;;0.81;86.43;100879.54;1767441;79;21107;-67
2020/12/01 08:21:29;;;;;;;6.57;3.73;;;;;;;0.82;86.43;100871.47;1707609;82;21225;-66
2020/12/01 08:24:01;;;;;;;5.20;3.47;;;;;;;0.83;86.45;100878.49;1706196;82;21029;-66
2020/12/01 08:26:32;;;;;;;6.67;2.57;;;;;;;0.87;86.47;100876.54;1704405;83;22250;-68
2020/12/01 08:29:19;;;;;;;7.00;2.97;;;;;;;0.92;86.44;100868.67;1717504;83;21187;-68
2020/12/01 08:31:57;;;;;;;8.03;3.97;;;;;;;0.97;86.44;100871.05;1777776;80;21041;-68
2020/12/01 08:35:02;;;;;;;6.20;2.87;;;;;;;0.99;86.33;100865.63;1771540;80;21003;-68
2020/12/01 08:37:49;;;;;;;5.13;2.57;;;;;;;0.94;86.24;100863.26;1737504;81;21041;-69
2020/12/01 08:41:12;;;;;;;3.90;2.40;;;;;;;0.92;86.15;100864.67;1739333;82;21220;-70
2020/12/01 08:43:53;;;;;;;6.23;2.90;;;;;;;0.91;86.17;100856.28;1693511;83;21142;-68
2020/12/01 08:46:25;;;;;;;9.80;4.23;;;;;;;0.95;86.22;100855.63;1730154;82;21191;-68
2020/12/01 08:49:06;;;;;;;3.97;2.67;;;;;;;0.93;86.15;100849.55;1727992;81;21602;-71
2020/12/01 08:51:57;;;;;;;2.97;1.83;;;;;;;0.88;86.10;100841.81;1696782;83;21073;-69
2020/12/01 08:54:34;;;;;;;6.60;3.37;;;;;;;0.89;86.03;100842.69;1870716;76;26823;-72
2020/12/01 08:57:14;;;;;;;8.30;4.13;;;;;;;0.82;86.00;100844.84;1838725;77;20961;-68
2020/12/01 08:59:53;;;;;;;7.40;3.90;;;;;;;0.76;86.00;100839.86;1836076;77;21436;-71
2020/12/01 09:02:21;;;;;;;5.93;3.53;;;;;;;0.70;86.01;100837.08;1840323;77;20992;-69
2020/12/01 09:05:01;;;;;;;3.83;2.90;;;;;;;0.69;86.05;100840.70;1829278;77;20929;-68
2020/12/01 09:10:24;;;;;;;5.07;3.03;;;;;;;0.79;86.21;100835.69;1843851;76;27173;-68
2020/12/01 09:13:16;;;;;;;8.13;3.87;;;;;;;0.77;86.21;100835.41;1819209;77;20955;-68
2020/12/01 09:24:00;;;;;;;6.10;3.17;;;;;;;0.76;86.16;100827.88;1748064;80;21056;-69
2020/12/01 09:26:34;;;;;;;6.30;3.50;;;;;;;0.79;86.17;100818.39;1843020;76;27322;-70
2020/12/01 09:29:02;;;;;;;6.20;3.87;;;;;;;0.71;86.16;100818.84;1744771;82;21143;-67
2020/12/01 09:31:35;;;;;;;9.20;5.03;;;;;;;0.68;86.19;100820.34;1769747;81;21357;-69
2020/12/01 09:34:03;;;;;;;11.10;4.80;;;;;;;0.66;86.21;100820.91;1712113;82;20959;-69
2020/12/01 09:36:31;;;;;;;4.30;2.57;;;;;;;0.66;86.26;100817.40;1759303;80;21551;-68
2020/12/01 09:39:00;;;;;;;6.50;4.40;;;;;;;0.65;86.30;100812.53;1732910;82;21046;-67
2020/12/01 09:41:28;;;;;;;6.97;3.70;;;;;;;0.67;86.39;100811.96;1740685;82;21019;-70
2020/12/01 09:44:03;;;;;;;9.30;4.23;;;;;;;0.66;86.41;100813.41;1763015;81;21275;-68
2020/12/01 09:46:46;;;;;;;6.03;3.30;;;;;;;0.65;86.42;100809.02;1759851;81;21641;-66
2020/12/01 09:49:05;;;;;;;6.40;3.10;;;;;;;0.63;86.45;100805.11;1736891;81;20968;-68
2020/12/01 09:51:33;;;;;;;9.03;4.03;;;;;;;0.64;86.48;100804.62;1758183;81;21020;-78
2020/12/01 09:54:18;;;;;;;6.33;3.20;;;;;;;0.67;86.56;100808.45;1765125;81;21016;-68
2020/12/01 09:56:46;;;;;;;8.07;4.27;;;;;;;0.71;86.63;100806.02;1761610;81;22081;-70
2020/12/01 10:07:58;;;;;;;5.00;2.40;;;;;;;0.80;86.73;100793.94;1743192;82;21037;-69
2020/12/01 10:10:28;;;;;;;7.43;3.23;;;;;;;0.82;86.75;100798.73;1759866;81;21381;-71
2020/12/01 10:16:22;;;;;;;8.77;3.17;;;;;;;0.82;86.76;100797.41;1690461;84;21097;-71
2020/12/01 10:34:26;;;;;;;11.87;4.30;;;;;;;0.81;86.79;100799.19;1795710;79;20956;-67
2020/12/01 10:36:54;;;;;;;8.83;3.67;;;;;;;0.82;86.79;100794.73;1784588;79;21071;-70
2020/12/01 10:39:23;;;;;;;13.43;4.77;;;;;;;0.80;86.79;100798.81;1801078;79;21008;-69
2020/12/01 10:41:50;;;;;;;4.57;2.90;;;;;;;0.79;86.80;100790.43;1812754;78;21429;-69
2020/12/01 10:44:18;;;;;;;6.60;4.07;;;;;;;0.80;86.86;100797.94;1793325;79;21025;-69
2020/12/01 10:46:49;;;;;;;6.63;4.07;;;;;;;0.79;86.87;100792.25;1755398;80;21014;-70
2020/12/01 10:49:19;;;;;;;4.80;3.03;;;;;;;0.77;86.90;100785.68;1741274;80;20973;-69
2020/12/01 10:51:50;;;;;;;8.13;4.77;;;;;;;0.75;86.93;100784.44;1749509;81;21004;-68
2020/12/01 10:54:18;;;;;;;6.50;3.00;;;;;;;0.75;86.91;100788.42;1778821;80;21213;-70
2020/12/01 10:56:50;;;;;;;6.67;4.00;;;;;;;0.77;86.93;100779.50;1769832;81;21052;-68
2020/12/01 10:59:17;;;;;;;9.70;4.23;;;;;;;0.75;86.93;100776.93;1739999;82;21610;-69
2020/12/01 11:01:45;;;;;;;6.97;3.93;;;;;;;0.74;86.96;100770.76;1744794;81;21086;-68
2020/12/01 11:04:13;;;;;;;7.23;3.63;;;;;;;0.75;87.02;100768.94;1734477;82;21294;-68
2020/12/01 11:06:41;;;;;;;3.90;2.33;;;;;;;0.74;87.05;100772.09;1738817;81;22463;-70
2020/12/01 11:09:09;;;;;;;5.90;3.53;;;;;;;0.72;87.02;100770.44;1752244;81;21593;-68
2020/12/01 11:11:38;;;;;;;8.17;4.17;;;;;;;0.72;87.05;100765.97;1739437;81;21053;-71
2020/12/01 11:14:06;;;;;;;6.50;4.10;;;;;;;0.74;87.08;100765.43;1753561;81;21050;-67
2020/12/01 11:16:36;;;;;;;8.70;5.23;;;;;;;0.75;87.11;100761.80;1746755;82;21080;-66
2020/12/01 11:19:05;;;;;;;5.07;2.93;;;;;;;0.75;87.14;100766.28;1769685;81;21383;-68
2020/12/01 11:21:35;;;;;;;5.90;3.40;;;;;;;0.79;87.15;100761.63;1741061;80;21022;-66
2020/12/01 11:24:03;;;;;;;8.57;4.33;;;;;;;0.82;87.18;100760.13;1771391;80;21398;-67
2020/12/01 11:26:31;;;;;;;7.07;3.20;;;;;;;0.89;87.25;100766.31;1744681;82;21007;-68
2020/12/01 11:29:01;;;;;;;6.70;3.80;;;;;;;0.95;87.27;100759.28;1762291;81;20997;-69
2020/12/01 11:31:32;;;;;;;9.33;3.93;;;;;;;0.99;87.27;100755.95;1779281;80;21946;-68
2020/12/01 11:34:04;;;;;;;9.77;4.37;;;;;;;1.03;87.23;100760.17;1751670;80;21011;-68
2020/12/01 11:36:33;;;;;;;3.57;2.80;;;;;;;1.00;87.09;100757.69;1646209;87;21603;-70
2020/12/01 11:39:04;;;;;;;7.47;4.33;;;;;;;0.98;86.96;100764.06;1641152;87;21587;-70
2020/12/01 11:41:32;;;;;;;8.30;3.77;;;;;;;0.99;86.88;100768.42;1652211;86;21047;-69
2020/12/01 11:44:00;;;;;;;9.77;4.27;;;;;;;0.97;86.82;100767.18;1659675;86;21385;-74
2020/12/01 11:46:28;;;;;;;6.13;3.37;;;;;;;0.94;86.77;100766.91;1655171;86;21094;-72
2020/12/01 11:49:01;;;;;;;6.97;3.87;;;;;;;0.97;86.78;100770.33;1662562;86;21257;-77
2020/12/01 11:51:25;;;;;;;7.93;3.30;;;;;;;1.01;86.75;100766.07;1654608;86;21620;-73
2020/12/01 11:53:53;;;;;;;6.63;3.53;;;;;;;1.00;86.67;100775.00;1641521;86;21126;-77
2020/12/01 11:56:21;;;;;;;7.30;3.87;;;;;;;1.03;86.66;100765.50;1655943;86;22527;-72
2020/12/01 11:58:49;;;;;;;8.40;4.87;;;;;;;1.02;86.59;100765.10;1652661;86;21148;-71
2020/12/01 12:01:17;;;;;;;12.60;6.03;;;;;;;1.01;86.49;100765.19;1661698;86;21054;-71
2020/12/01 12:03:45;;;;;;;8.93;5.37;;;;;;;0.99;86.38;100766.61;1645389;86;21130;-71
2020/12/01 12:06:13;;;;;;;9.70;4.67;;;;;;;0.96;86.31;100752.17;1663770;86;21052;-72
2020/12/01 12:08:41;;;;;;;7.23;4.03;;;;;;;0.96;86.30;100762.82;1646878;86;21408;-71
2020/12/01 12:11:09;;;;;;;9.37;4.73;;;;;;;0.97;86.24;100769.84;1652380;86;21006;-72
2020/12/01 12:13:37;;;;;;;7.53;3.73;;;;;;;0.98;86.21;100768.06;1638642;84;21063;-72
2020/12/01 12:16:05;;;;;;;6.80;3.57;;;;;;;0.98;86.20;100765.39;1634594;87;21059;-73
2020/12/01 12:18:32;;;;;;;9.13;4.90;;;;;;;0.97;86.17;100761.85;1649226;86;21221;-72
2020/12/01 12:21:01;;;;;;;5.40;2.60;;;;;;;0.98;86.15;100766.73;1657756;86;21163;-72
2020/12/01 12:23:29;;;;;;;10.60;3.90;;;;;;;1.01;86.16;100762.52;1641422;87;20933;-79
2020/12/01 12:25:56;;;;;;;9.70;4.40;;;;;;;1.04;86.13;100758.36;1650094;86;21173;-78
2020/12/01 12:28:25;;;;;;;5.63;3.10;;;;;;;1.03;86.08;100761.98;1662139;86;21784;-69
2020/12/01 12:30:53;;;;;;;3.90;3.07;;;;;;;1.04;85.97;100763.69;1664902;86;21046;-71
2020/12/01 12:33:21;;;;;;;6.87;4.47;;;;;;;1.03;85.89;100763.32;1689180;82;21414;-68
2020/12/01 12:38:19;;;;;;;8.53;4.10;;;;;;;1.02;85.73;100770.42;1660344;85;21102;-69
2020/12/01 12:40:56;;;;;;;7.77;4.53;;;;;;;1.08;85.71;100763.42;1844286;76;27174;-68
2020/12/01 12:43:26;;;;;;;7.80;3.53;;;;;;;1.04;85.61;100770.34;1815325;79;20984;-68
2020/12/01 12:45:55;;;;;;;4.03;2.83;;;;;;;1.04;85.56;100773.85;1810961;79;21533;-69
2020/12/01 12:48:24;;;;;;;8.20;2.83;;;;;;;1.06;85.51;100780.42;1800358;77;20933;-70
2020/12/01 12:50:54;;;;;;;6.80;4.30;;;;;;;1.09;85.47;100776.25;1802216;79;20926;-69